createdAt,value
2019-04-16T00:01:55.576Z,1.31
2019-04-16T00:07:24.635Z,1.35
2019-04-16T00:13:27.040Z,1.30
2019-04-16T00:15:57.092Z,1.20
2019-04-16T00:18:26.600Z,1.22
2019-04-16T00:21:14.930Z,1.22
2019-04-16T00:24:03.231Z,1.25
2019-04-16T00:32:52.920Z,1.22
2019-04-16T00:35:22.428Z,1.20
2019-04-16T00:37:52.406Z,1.19
2019-04-16T00:40:26.378Z,1.19
2019-04-16T00:43:05.450Z,1.20
2019-04-16T00:45:35.000Z,1.19
2019-04-16T00:48:04.603Z,1.16
2019-04-16T00:50:34.027Z,1.12
2019-04-16T00:53:42.682Z,1.07
2019-04-16T00:56:13.389Z,1.09
2019-04-16T00:58:43.380Z,1.04
2019-04-16T01:01:12.810Z,1.00
2019-04-16T01:06:51.024Z,1.01
2019-04-16T01:09:20.382Z,1.00
2019-04-16T01:11:49.839Z,0.99
2019-04-16T01:14:21.008Z,0.92
2019-04-16T01:16:50.360Z,0.89
2019-04-16T01:22:16.012Z,0.92
2019-04-16T01:24:49.204Z,0.87
2019-04-16T01:27:17.654Z,0.84
2019-04-16T01:30:26.447Z,0.82
2019-04-16T01:39:14.817Z,0.70
2019-04-16T01:41:31.930Z,0.70
2019-04-16T01:44:01.436Z,0.71
2019-04-16T01:46:32.960Z,0.70
2019-04-16T01:52:03.440Z,0.67
2019-04-16T01:54:32.845Z,0.64
2019-04-16T01:57:02.728Z,0.64
2019-04-16T02:02:20.796Z,0.60
2019-04-16T02:04:52.133Z,0.49
2019-04-16T02:07:21.346Z,0.51
2019-04-16T02:09:50.779Z,0.52
2019-04-16T02:12:20.284Z,0.51
2019-04-16T02:15:01.590Z,0.51
2019-04-16T02:17:49.906Z,0.54
2019-04-16T02:23:45.405Z,0.41
2019-04-16T02:29:30.548Z,0.45
2019-04-16T02:32:00.556Z,0.44
2019-04-16T02:35:09.321Z,0.48
2019-04-16T02:40:53.437Z,0.52
2019-04-16T02:43:39.726Z,0.51
2019-04-16T02:49:08.139Z,0.42
2019-04-16T02:51:56.353Z,0.42
2019-04-16T02:54:44.756Z,0.44
2019-04-16T02:59:56.871Z,0.48
2019-04-16T03:02:45.093Z,0.46
2019-04-16T03:08:09.624Z,0.44
2019-04-16T03:10:41.851Z,0.43
2019-04-16T03:13:52.825Z,0.43
2019-04-16T03:22:19.579Z,0.49
2019-04-16T03:27:57.632Z,0.42
2019-04-16T03:30:27.218Z,0.31
2019-04-16T03:32:56.713Z,0.35
2019-04-16T03:35:26.820Z,0.37
2019-04-16T03:37:57.274Z,0.29
2019-04-16T03:40:37.918Z,0.25
2019-04-16T03:43:07.287Z,0.29
2019-04-16T03:46:16.370Z,0.33
2019-04-16T03:51:48.994Z,0.42
2019-04-16T03:54:57.630Z,0.40
2019-04-16T03:57:27.156Z,0.38
2019-04-16T03:59:56.622Z,0.43
2019-04-16T04:02:26.076Z,0.49
2019-04-16T04:05:35.712Z,0.51
2019-04-16T04:08:06.099Z,0.49
2019-04-16T04:10:37.191Z,0.60
2019-04-16T04:13:06.760Z,0.64
2019-04-16T04:18:44.881Z,0.71
2019-04-16T04:24:31.375Z,0.76
2019-04-16T04:26:59.752Z,0.83
2019-04-16T04:29:30.058Z,0.90
2019-04-16T04:32:03.067Z,0.98
2019-04-16T04:37:56.432Z,1.06
2019-04-16T04:40:25.846Z,1.13
2019-04-16T04:48:46.254Z,1.36
2019-04-16T04:51:15.616Z,1.60
2019-04-16T04:53:47.585Z,1.99
2019-04-16T04:59:18.990Z,3.16
2019-04-16T05:01:48.488Z,4.47
2019-04-16T05:04:36.824Z,5.92
2019-04-16T05:07:25.678Z,8.58
2019-04-16T05:10:39.822Z,10.38
2019-04-16T05:13:07.095Z,11.96
2019-04-16T05:15:36.460Z,13.40
2019-04-16T05:18:24.923Z,14.72
2019-04-16T05:20:54.352Z,16.34
2019-04-16T05:26:12.295Z,17.19
2019-04-16T05:28:45.363Z,17.99
2019-04-16T05:31:25.589Z,18.49
2019-04-16T05:36:36.150Z,18.95
2019-04-16T05:42:07.259Z,18.51
2019-04-16T05:44:36.823Z,18.68
2019-04-16T05:47:06.190Z,18.84
2019-04-16T05:53:13.211Z,17.85
2019-04-16T05:56:00.788Z,17.34
2019-04-16T06:04:12.496Z,14.19
2019-04-16T06:06:41.846Z,13.54
2019-04-16T06:09:12.257Z,12.35
2019-04-16T06:11:42.417Z,12.69
2019-04-16T06:14:30.632Z,13.19
2019-04-16T06:26:17.104Z,17.41
2019-04-16T06:32:08.433Z,18.35
2019-04-16T06:34:58.449Z,18.78
2019-04-16T06:37:47.235Z,18.54
2019-04-16T06:40:35.470Z,16.80
2019-04-16T06:43:15.516Z,16.45
2019-04-16T06:45:55.586Z,14.93
2019-04-16T06:48:29.930Z,15.03
2019-04-16T06:51:18.343Z,14.69
2019-04-16T06:54:20.952Z,14.37
2019-04-16T06:57:00.124Z,14.33
2019-04-16T06:59:39.044Z,14.39
2019-04-16T07:02:27.615Z,13.73
2019-04-16T07:05:16.161Z,13.41
2019-04-16T07:08:04.570Z,13.87
2019-04-16T07:10:44.331Z,13.91
2019-04-16T07:15:44.296Z,15.14
2019-04-16T07:18:13.769Z,15.52
2019-04-16T07:20:45.762Z,16.00
2019-04-16T07:23:14.626Z,16.51
2019-04-16T07:25:45.204Z,16.63
2019-04-16T07:28:34.227Z,16.52
2019-04-16T07:31:33.537Z,16.44
2019-04-16T07:34:12.736Z,16.48
2019-04-16T07:37:01.892Z,16.54
2019-04-16T07:51:40.033Z,18.39
2019-04-16T07:54:28.269Z,18.07
2019-04-16T07:57:37.151Z,18.20
2019-04-16T08:03:23.571Z,18.19
2019-04-16T08:05:53.039Z,17.11
2019-04-16T08:08:41.497Z,17.03
2019-04-16T08:11:11.127Z,16.85
2019-04-16T08:16:55.432Z,18.16
2019-04-16T08:19:36.070Z,17.65
2019-04-16T08:22:35.336Z,16.84
2019-04-16T08:28:13.583Z,15.94
2019-04-16T08:30:42.963Z,15.27
2019-04-16T08:33:31.230Z,15.07
2019-04-16T08:36:00.673Z,14.78
2019-04-16T08:38:34.037Z,15.03
2019-04-16T08:41:40.589Z,15.25
2019-04-16T08:44:10.779Z,15.11
2019-04-16T08:46:41.340Z,15.59
2019-04-16T08:52:10.256Z,16.19
2019-04-16T08:57:51.100Z,16.50
2019-04-16T09:03:26.948Z,15.65
2019-04-16T09:05:57.606Z,16.16
2019-04-16T09:08:45.917Z,16.42
2019-04-16T09:19:16.419Z,16.88
2019-04-16T09:21:58.476Z,16.28
2019-04-16T09:25:12.554Z,16.55
2019-04-16T09:27:41.057Z,16.81
2019-04-16T09:30:50.705Z,16.64
2019-04-16T09:36:27.227Z,16.86
2019-04-16T09:39:15.524Z,16.68
2019-04-16T09:44:46.510Z,15.88
2019-04-16T09:47:16.012Z,15.71
2019-04-16T09:49:45.338Z,15.71
2019-04-16T09:52:14.868Z,15.96
2019-04-16T09:54:45.134Z,16.44
2019-04-16T09:57:15.454Z,16.55
2019-04-16T10:00:03.747Z,16.20
2019-04-16T10:02:55.013Z,16.47
2019-04-16T10:05:26.459Z,16.44
2019-04-16T10:11:07.915Z,16.73
2019-04-16T10:16:52.307Z,17.06
2019-04-16T10:19:22.227Z,17.02
2019-04-16T10:22:32.243Z,16.74
2019-04-16T10:25:20.508Z,17.09
2019-04-16T10:28:08.790Z,16.99
2019-04-16T10:30:57.012Z,16.96
2019-04-16T10:36:46.247Z,17.32
2019-04-16T10:42:35.416Z,17.17
2019-04-16T10:48:37.915Z,17.18
2019-04-16T10:51:26.179Z,17.04
2019-04-16T10:54:14.705Z,17.05
2019-04-16T10:57:02.978Z,17.26
2019-04-16T10:59:51.385Z,17.48
2019-04-16T11:11:24.512Z,17.25
2019-04-16T11:17:21.803Z,17.32
2019-04-16T11:22:39.748Z,16.95
2019-04-16T11:25:09.245Z,16.73
2019-04-16T11:28:18.024Z,16.61
2019-04-16T11:34:17.328Z,16.70
2019-04-16T11:36:46.948Z,16.57
2019-04-16T11:39:16.447Z,16.32
2019-04-16T11:44:40.861Z,16.49
2019-04-16T11:47:10.361Z,16.51
2019-04-16T11:49:58.868Z,16.60
2019-04-16T11:55:42.460Z,16.85
2019-04-16T11:58:30.851Z,16.56
2019-04-16T12:04:27.103Z,16.19
2019-04-16T12:07:15.482Z,16.22
2019-04-16T12:10:24.156Z,15.90
2019-04-16T12:13:12.713Z,15.42
2019-04-16T12:16:01.191Z,15.71
2019-04-16T12:24:09.829Z,15.42
2019-04-16T12:26:53.357Z,15.51
2019-04-16T12:29:41.682Z,15.02
2019-04-16T12:32:30.230Z,14.87
2019-04-16T12:38:19.824Z,14.87
2019-04-16T12:41:08.080Z,14.49
2019-04-16T12:43:40.580Z,14.36
2019-04-16T12:49:33.367Z,14.36
2019-04-16T12:52:22.419Z,14.64
2019-04-16T12:55:11.654Z,14.30
2019-04-16T12:57:59.955Z,14.02
2019-04-16T13:00:48.229Z,14.23
2019-04-16T13:03:36.613Z,14.29
2019-04-16T13:12:28.166Z,13.87
2019-04-16T13:15:16.691Z,13.69
2019-04-16T13:18:05.070Z,13.70
2019-04-16T13:20:56.966Z,13.65
2019-04-16T13:24:03.789Z,13.80
2019-04-16T13:26:52.050Z,14.19
2019-04-16T13:29:29.006Z,14.35
2019-04-16T13:35:00.846Z,13.97
2019-04-16T13:40:44.911Z,14.42
2019-04-16T13:51:59.028Z,14.32
2019-04-16T13:54:47.393Z,14.36
2019-04-16T13:57:56.149Z,14.45
2019-04-16T14:00:44.486Z,14.46
2019-04-16T14:03:16.359Z,14.66
2019-04-16T14:05:45.848Z,15.38
2019-04-16T14:11:10.256Z,16.95
2019-04-16T14:13:42.008Z,18.74
2019-04-16T14:19:05.463Z,19.90
2019-04-16T14:36:32.219Z,20.64
2019-04-16T14:41:54.258Z,20.11
2019-04-16T14:50:13.964Z,20.79
2019-04-16T14:52:45.159Z,20.14
2019-04-16T14:56:00.746Z,20.21
2019-04-16T15:04:26.519Z,20.78
2019-04-16T15:07:14.908Z,20.09
2019-04-16T15:13:07.427Z,19.53
2019-04-16T15:16:07.208Z,19.26
2019-04-16T15:21:25.157Z,18.83
2019-04-16T15:24:13.490Z,19.10
2019-04-16T15:26:53.596Z,19.00
2019-04-16T15:29:42.088Z,19.03
2019-04-16T15:32:30.722Z,18.89
2019-04-16T15:35:00.192Z,18.34
2019-04-16T15:38:07.374Z,18.45
2019-04-16T15:41:17.534Z,17.98
2019-04-16T15:43:56.902Z,17.70
2019-04-16T15:46:43.811Z,17.58
2019-04-16T15:49:19.480Z,17.12
2019-04-16T15:52:02.717Z,16.30
2019-04-16T15:58:10.801Z,14.42
2019-04-16T16:03:59.992Z,13.27
2019-04-16T16:06:30.221Z,13.07
2019-04-16T16:09:07.481Z,13.00
2019-04-16T16:12:15.796Z,12.88
2019-04-16T16:21:00.668Z,12.58
2019-04-16T16:23:34.139Z,12.51
2019-04-16T16:26:01.595Z,12.48
2019-04-16T16:28:31.014Z,12.49
2019-04-16T16:31:00.440Z,12.46
2019-04-16T16:33:29.955Z,12.38
2019-04-16T16:36:00.388Z,12.41
2019-04-16T16:38:30.073Z,12.38
2019-04-16T16:40:59.501Z,12.37
2019-04-16T16:43:29.298Z,12.36
2019-04-16T16:46:05.520Z,12.12
2019-04-16T16:48:35.413Z,12.18
2019-04-16T16:51:04.882Z,12.17
2019-04-16T16:53:48.661Z,12.17
2019-04-16T16:56:26.139Z,12.15
2019-04-16T16:59:09.591Z,12.18
2019-04-16T17:02:18.297Z,12.16
2019-04-16T17:04:49.701Z,12.18
2019-04-16T17:07:19.117Z,11.94
2019-04-16T17:09:48.520Z,11.85
2019-04-16T17:12:18.006Z,11.80
2019-04-16T17:14:47.333Z,11.69
2019-04-16T17:17:16.828Z,11.68
2019-04-16T17:19:46.267Z,11.69
2019-04-16T17:22:17.444Z,11.74
2019-04-16T17:24:47.901Z,11.79
2019-04-16T17:27:17.362Z,11.70
2019-04-16T17:29:49.714Z,11.58
2019-04-16T17:35:15.591Z,11.65
2019-04-16T17:37:43.791Z,11.64
2019-04-16T17:40:22.199Z,11.63
2019-04-16T17:46:39.596Z,11.53
2019-04-16T17:49:46.977Z,11.41
2019-04-16T17:52:35.283Z,11.33
2019-04-16T18:04:30.490Z,11.01
2019-04-16T18:07:18.803Z,10.90
2019-04-16T18:10:07.138Z,10.78
2019-04-16T18:12:45.002Z,10.65
2019-04-16T18:15:22.250Z,10.55
2019-04-16T18:18:16.832Z,10.45
2019-04-16T18:24:01.879Z,10.26
2019-04-16T18:27:12.470Z,10.20
2019-04-16T18:30:23.051Z,10.11
2019-04-16T18:33:33.117Z,10.02
2019-04-16T18:36:40.579Z,9.95
2019-04-16T18:48:15.159Z,9.49
2019-04-16T18:50:44.570Z,9.37
2019-04-16T18:53:14.078Z,9.31
2019-04-16T18:55:43.515Z,9.25
2019-04-16T18:58:13.003Z,9.22
2019-04-16T19:00:50.938Z,9.16
2019-04-16T19:03:20.412Z,9.13
2019-04-16T19:05:49.856Z,9.04
2019-04-16T19:08:19.368Z,8.96
2019-04-16T19:10:48.897Z,8.85
2019-04-16T19:13:20.084Z,8.79
2019-04-16T19:15:50.111Z,8.78
2019-04-16T19:18:20.430Z,8.76
2019-04-16T19:20:51.847Z,8.72
2019-04-16T19:23:22.100Z,8.62
2019-04-16T19:25:54.730Z,8.49
2019-04-16T19:28:23.681Z,8.39
2019-04-16T19:31:32.384Z,8.31
2019-04-16T19:37:03.756Z,8.13
2019-04-16T19:39:33.181Z,8.07
2019-04-16T19:42:25.720Z,7.83
2019-04-16T19:44:54.288Z,7.58
2019-04-16T19:50:36.610Z,7.32
2019-04-16T19:53:04.505Z,7.12
2019-04-16T19:55:33.898Z,7.14
2019-04-16T19:58:03.278Z,7.13
2019-04-16T20:00:32.664Z,7.09
2019-04-16T20:03:02.075Z,6.95
2019-04-16T20:05:31.522Z,6.81
2019-04-16T20:08:01.130Z,6.59
2019-04-16T20:10:31.058Z,6.61
2019-04-16T20:13:00.442Z,6.05
2019-04-16T20:15:29.965Z,6.65
2019-04-16T20:17:59.477Z,6.50
2019-04-16T20:21:08.311Z,6.43
2019-04-16T20:32:48.931Z,6.06
2019-04-16T20:35:19.168Z,6.04
2019-04-16T20:37:50.406Z,6.03
2019-04-16T20:43:15.086Z,5.91
2019-04-16T20:45:44.412Z,5.85
2019-04-16T20:48:13.792Z,5.83
2019-04-16T20:50:43.324Z,5.82
2019-04-16T20:53:12.663Z,5.80
2019-04-16T20:55:47.121Z,5.77
2019-04-16T20:58:14.903Z,5.63
2019-04-16T21:00:47.023Z,5.64
2019-04-16T21:03:22.170Z,5.63
2019-04-16T21:05:57.748Z,5.59
2019-04-16T21:08:24.394Z,5.51
2019-04-16T21:10:51.023Z,5.38
2019-04-16T21:13:20.571Z,5.28
2019-04-16T21:15:49.945Z,5.26
2019-04-16T21:18:19.299Z,5.22
2019-04-16T21:20:51.070Z,5.12
2019-04-16T21:23:19.852Z,5.07
2019-04-16T21:25:49.218Z,5.09
2019-04-16T21:34:02.934Z,4.90
2019-04-16T21:36:51.232Z,4.84
2019-04-16T21:45:23.249Z,4.69
2019-04-16T21:51:01.292Z,4.45
2019-04-16T21:53:30.807Z,4.28
2019-04-16T22:07:40.934Z,3.95
2019-04-16T22:10:10.654Z,3.94
2019-04-16T22:16:14.708Z,4.01
2019-04-16T22:21:58.062Z,3.96
2019-04-16T22:25:06.829Z,3.86
2019-04-16T22:27:36.808Z,3.87
2019-04-16T22:36:23.166Z,3.80
2019-04-16T22:38:59.034Z,3.76
2019-04-16T22:41:47.411Z,3.68
2019-04-16T22:44:36.102Z,3.61
2019-04-16T22:47:20.606Z,3.57
2019-04-16T22:49:51.633Z,3.56
2019-04-16T22:52:21.263Z,3.51
2019-04-16T22:54:52.956Z,3.42
2019-04-16T22:57:21.928Z,3.29
2019-04-16T23:00:30.549Z,3.24
2019-04-16T23:03:39.314Z,3.26
2019-04-16T23:06:08.858Z,3.27
2019-04-16T23:08:40.509Z,3.23
2019-04-16T23:11:09.521Z,3.18
2019-04-16T23:14:18.278Z,3.18
2019-04-16T23:16:49.296Z,3.12
2019-04-16T23:19:20.339Z,3.09
2019-04-16T23:22:29.085Z,3.01
2019-04-16T23:25:17.651Z,2.93
2019-04-16T23:27:47.303Z,2.89
2019-04-16T23:30:19.222Z,2.85
2019-04-16T23:33:01.436Z,2.81
2019-04-16T23:35:31.251Z,2.78
2019-04-16T23:38:01.132Z,2.78
2019-04-16T23:41:15.532Z,2.76
2019-04-16T23:44:01.085Z,2.73
2019-04-16T23:46:49.362Z,2.66
2019-04-16T23:49:37.166Z,2.67
2019-04-16T23:58:29.173Z,2.61
